createdAt,value
2023-03-06T00:00:07.703Z,7.20
2023-03-06T00:01:07.682Z,9.20
2023-03-06T00:02:07.683Z,7.30
2023-03-06T00:03:07.676Z,9.60
2023-03-06T00:04:07.708Z,8.30
2023-03-06T00:05:07.676Z,7.20
2023-03-06T00:06:07.658Z,6.80
2023-03-06T00:07:07.625Z,7.30
2023-03-06T00:08:07.618Z,4.90
2023-03-06T00:09:07.612Z,9.00
2023-03-06T00:10:07.595Z,7.20
2023-03-06T00:11:07.606Z,7.70
2023-03-06T00:12:07.603Z,5.70
2023-03-06T00:13:07.566Z,6.70
2023-03-06T00:14:07.559Z,5.80
2023-03-06T00:15:07.544Z,10.80
2023-03-06T00:16:07.591Z,8.40
2023-03-06T00:17:07.544Z,7.60
2023-03-06T00:18:07.509Z,9.00
2023-03-06T00:19:07.496Z,7.30
2023-03-06T00:20:07.483Z,7.00
2023-03-06T00:21:07.502Z,5.90
2023-03-06T00:22:07.466Z,7.30
2023-03-06T00:23:07.464Z,7.00
2023-03-06T00:24:07.446Z,8.20
2023-03-06T00:25:07.438Z,10.30
2023-03-06T00:26:07.444Z,8.40
2023-03-06T00:27:07.414Z,7.60
2023-03-06T00:28:07.404Z,7.40
2023-03-06T00:29:07.385Z,6.60
2023-03-06T00:30:07.375Z,11.50
2023-03-06T00:31:07.408Z,11.80
2023-03-06T00:32:07.441Z,7.90
2023-03-06T00:33:07.344Z,8.50
2023-03-06T00:34:07.344Z,8.60
2023-03-06T00:35:07.325Z,8.20
2023-03-06T00:36:07.334Z,6.60
2023-03-06T00:37:07.324Z,8.50
2023-03-06T00:38:07.312Z,9.00
2023-03-06T00:39:07.282Z,10.50
2023-03-06T00:40:07.274Z,6.90
2023-03-06T00:41:07.275Z,8.80
2023-03-06T00:42:07.242Z,8.20
2023-03-06T00:43:07.249Z,9.00
2023-03-06T00:44:07.221Z,8.10
2023-03-06T00:45:07.213Z,8.50
2023-03-06T00:46:07.278Z,8.40
2023-03-06T00:47:07.222Z,8.30
2023-03-06T00:48:07.185Z,7.20
2023-03-06T00:49:07.163Z,11.80
2023-03-06T00:50:07.171Z,13.50
2023-03-06T00:51:07.147Z,8.40
2023-03-06T00:52:07.144Z,8.80
2023-03-06T00:53:07.152Z,10.00
2023-03-06T00:54:07.133Z,8.50
2023-03-06T00:55:07.099Z,8.20
2023-03-06T00:56:07.091Z,10.80
2023-03-06T00:57:07.082Z,8.60
2023-03-06T00:58:07.066Z,12.40
2023-03-06T00:59:07.080Z,8.90
2023-03-06T01:00:07.055Z,9.10
2023-03-06T01:01:07.069Z,9.70
2023-03-06T01:02:07.071Z,8.40
2023-03-06T01:03:07.013Z,6.90
2023-03-06T01:04:07.015Z,8.90
2023-03-06T01:05:07.020Z,10.10
2023-03-06T01:06:06.991Z,8.80
2023-03-06T01:07:06.980Z,11.30
2023-03-06T01:08:06.960Z,11.20
2023-03-06T01:09:06.971Z,9.80
2023-03-06T01:10:06.934Z,9.50
2023-03-06T01:11:06.951Z,9.10
2023-03-06T01:12:06.921Z,14.20
2023-03-06T01:13:06.908Z,9.80
2023-03-06T01:14:06.897Z,9.00
2023-03-06T01:15:06.913Z,13.20
2023-03-06T01:16:06.934Z,8.30
2023-03-06T01:17:06.860Z,8.80
2023-03-06T01:18:06.859Z,10.00
2023-03-06T01:19:06.837Z,10.60
2023-03-06T01:20:06.836Z,9.40
2023-03-06T01:21:06.837Z,8.20
2023-03-06T01:22:06.821Z,9.10
2023-03-06T01:23:06.796Z,8.20
2023-03-06T01:24:06.795Z,9.30
2023-03-06T01:25:06.777Z,9.40
2023-03-06T01:26:06.785Z,8.80
2023-03-06T01:27:06.755Z,11.10
2023-03-06T01:28:06.757Z,8.50
2023-03-06T01:29:06.726Z,6.70
2023-03-06T01:30:06.718Z,9.50
2023-03-06T01:31:06.712Z,8.70
2023-03-06T01:32:06.831Z,8.90
2023-03-06T01:33:06.695Z,9.10
2023-03-06T01:34:06.679Z,7.80
2023-03-06T01:35:06.664Z,10.70
2023-03-06T01:36:06.663Z,8.80
2023-03-06T01:37:06.667Z,8.70
2023-03-06T01:38:06.644Z,8.50
2023-03-06T01:39:06.627Z,9.10
2023-03-06T01:40:06.613Z,9.20
2023-03-06T01:41:06.596Z,7.00
2023-03-06T01:42:06.594Z,8.10
2023-03-06T01:43:06.608Z,11.20
2023-03-06T01:44:06.591Z,10.70
2023-03-06T01:45:06.563Z,10.20
2023-03-06T01:46:06.573Z,9.10
2023-03-06T01:47:06.544Z,9.90
2023-03-06T01:48:06.550Z,8.10
2023-03-06T01:49:06.522Z,9.70
2023-03-06T01:50:06.503Z,11.00
2023-03-06T01:51:06.493Z,8.90
2023-03-06T01:52:06.492Z,10.60
2023-03-06T01:53:06.494Z,9.20
2023-03-06T01:54:06.497Z,11.50
2023-03-06T01:55:06.454Z,9.10
2023-03-06T01:56:06.446Z,10.70
2023-03-06T01:57:06.432Z,8.50
2023-03-06T01:58:06.423Z,9.40
2023-03-06T01:59:06.411Z,11.90
2023-03-06T02:00:06.423Z,11.60
2023-03-06T02:01:06.431Z,13.10
2023-03-06T02:02:06.403Z,10.50
2023-03-06T02:03:06.374Z,10.90
2023-03-06T02:04:06.363Z,9.50
2023-03-06T02:05:06.385Z,8.30
2023-03-06T02:06:06.361Z,8.70
2023-03-06T02:07:06.323Z,11.30
2023-03-06T02:08:06.314Z,7.50
2023-03-06T02:09:06.323Z,8.10
2023-03-06T02:10:06.302Z,10.00
2023-03-06T02:11:06.444Z,8.90
2023-03-06T02:12:06.273Z,8.50
2023-03-06T02:13:06.255Z,8.90
2023-03-06T02:14:06.268Z,9.20
2023-03-06T02:15:06.236Z,12.40
2023-03-06T02:16:06.226Z,8.80
2023-03-06T02:17:06.245Z,10.90
2023-03-06T02:18:06.203Z,11.80
2023-03-06T02:19:06.195Z,8.20
2023-03-06T02:20:06.189Z,8.10
2023-03-06T02:21:06.190Z,10.50
2023-03-06T02:22:06.168Z,8.20
2023-03-06T02:23:06.179Z,10.50
2023-03-06T02:24:06.177Z,10.10
2023-03-06T02:25:06.129Z,9.30
2023-03-06T02:26:06.118Z,10.30
2023-03-06T02:27:06.111Z,10.20
2023-03-06T02:28:06.111Z,9.70
2023-03-06T02:29:06.088Z,9.70
2023-03-06T02:30:06.117Z,8.10
2023-03-06T02:31:06.091Z,11.30
2023-03-06T02:32:06.080Z,8.80
2023-03-06T02:33:06.058Z,10.70
2023-03-06T02:34:06.055Z,8.70
2023-03-06T02:35:06.017Z,13.00
2023-03-06T02:36:06.020Z,9.20
2023-03-06T02:37:06.003Z,9.30
2023-03-06T02:38:05.998Z,8.20
2023-03-06T02:39:05.999Z,9.30
2023-03-06T02:40:05.991Z,10.30
2023-03-06T02:41:05.958Z,11.00
2023-03-06T02:42:05.955Z,8.20
2023-03-06T02:43:05.932Z,9.80
2023-03-06T02:44:05.917Z,9.10
2023-03-06T02:45:05.925Z,9.80
2023-03-06T02:46:05.983Z,9.60
2023-03-06T02:47:05.884Z,12.60
2023-03-06T02:48:05.887Z,8.20
2023-03-06T02:49:05.883Z,9.60
2023-03-06T02:50:05.890Z,7.90
2023-03-06T02:51:05.872Z,8.00
2023-03-06T02:52:05.829Z,10.80
2023-03-06T02:53:05.824Z,8.40
2023-03-06T02:54:05.809Z,8.00
2023-03-06T02:55:05.804Z,7.20
2023-03-06T02:56:05.811Z,10.60
2023-03-06T02:57:05.770Z,10.50
2023-03-06T02:58:05.773Z,8.60
2023-03-06T02:59:05.766Z,8.80
2023-03-06T03:00:05.742Z,9.70
2023-03-06T03:01:05.768Z,9.70
2023-03-06T03:02:05.742Z,7.60
2023-03-06T03:03:05.710Z,12.00
2023-03-06T03:04:05.722Z,9.10
2023-03-06T03:05:05.687Z,8.30
2023-03-06T03:06:05.678Z,6.80
2023-03-06T03:07:05.692Z,9.70
2023-03-06T03:08:05.663Z,6.00
2023-03-06T03:09:05.642Z,8.50
2023-03-06T03:10:05.632Z,7.20
2023-03-06T03:11:05.621Z,9.50
2023-03-06T03:12:05.629Z,7.90
2023-03-06T03:13:05.599Z,7.60
2023-03-06T03:14:05.586Z,8.20
2023-03-06T03:15:05.586Z,9.50
2023-03-06T03:16:05.635Z,8.60
2023-03-06T03:17:05.577Z,8.00
2023-03-06T03:18:05.553Z,7.20
2023-03-06T03:19:05.531Z,16.80
2023-03-06T03:20:05.552Z,5.40
2023-03-06T03:21:05.512Z,7.50
2023-03-06T03:22:05.503Z,6.60
2023-03-06T03:23:05.492Z,12.60
2023-03-06T03:24:05.492Z,7.90
2023-03-06T03:25:05.475Z,11.60
2023-03-06T03:26:05.494Z,7.30
2023-03-06T03:27:05.459Z,10.60
2023-03-06T03:28:05.456Z,8.30
2023-03-06T03:29:05.466Z,10.70
2023-03-06T03:30:05.443Z,7.70
2023-03-06T03:31:05.426Z,10.30
2023-03-06T03:32:05.439Z,10.40
2023-03-06T03:33:05.382Z,9.80
2023-03-06T03:34:05.381Z,7.50
2023-03-06T03:35:05.389Z,8.20
2023-03-06T03:36:05.388Z,12.80
2023-03-06T03:37:05.342Z,9.40
2023-03-06T03:38:05.334Z,8.00
2023-03-06T03:39:05.326Z,9.00
2023-03-06T03:40:05.341Z,8.80
2023-03-06T03:41:05.303Z,8.10
2023-03-06T03:42:05.285Z,9.50
2023-03-06T03:43:05.273Z,6.80
2023-03-06T03:44:05.301Z,8.20
2023-03-06T03:45:05.273Z,8.50
2023-03-06T03:46:05.275Z,6.90
2023-03-06T03:47:05.232Z,9.80
2023-03-06T03:48:05.233Z,10.30
2023-03-06T03:49:05.216Z,8.70
2023-03-06T03:50:05.232Z,11.20
2023-03-06T03:51:05.185Z,9.70
2023-03-06T03:52:05.177Z,8.80
2023-03-06T03:53:05.167Z,7.70
2023-03-06T03:54:05.154Z,9.50
2023-03-06T03:55:05.144Z,9.70
2023-03-06T03:56:05.160Z,8.10
2023-03-06T03:57:05.126Z,9.70
2023-03-06T03:58:05.113Z,8.40
2023-03-06T03:59:05.107Z,8.00
2023-03-06T04:00:05.093Z,10.40
2023-03-06T04:01:05.072Z,10.10
2023-03-06T04:02:05.114Z,7.50
2023-03-06T04:03:05.053Z,6.80
2023-03-06T04:04:05.051Z,9.30
2023-03-06T04:05:05.145Z,10.90
2023-03-06T04:06:05.019Z,12.60
2023-03-06T04:07:05.043Z,8.30
2023-03-06T04:08:05.011Z,8.00
2023-03-06T04:09:05.005Z,8.50
2023-03-06T04:10:05.002Z,6.20
2023-03-06T04:11:04.971Z,7.70
2023-03-06T04:12:04.961Z,8.60
2023-03-06T04:13:04.986Z,7.50
2023-03-06T04:14:04.938Z,8.20
2023-03-06T04:15:04.940Z,11.10
2023-03-06T04:16:04.955Z,10.00
2023-03-06T04:17:04.938Z,6.80
2023-03-06T04:18:04.896Z,9.60
2023-03-06T04:19:04.916Z,7.90
2023-03-06T04:20:04.882Z,8.60
2023-03-06T04:21:04.882Z,8.60
2023-03-06T04:22:04.853Z,6.80
2023-03-06T04:23:05.950Z,8.50
2023-03-06T04:24:04.859Z,7.90
2023-03-06T04:25:04.810Z,7.60
2023-03-06T04:26:04.807Z,8.80
2023-03-06T04:27:04.803Z,10.40
2023-03-06T04:28:04.802Z,7.90
2023-03-06T04:29:04.802Z,7.30
2023-03-06T04:30:04.761Z,8.60
2023-03-06T04:31:04.766Z,7.40
2023-03-06T04:32:04.781Z,8.00
2023-03-06T04:33:04.729Z,9.60
2023-03-06T04:34:04.741Z,8.10
2023-03-06T04:35:04.709Z,7.80
2023-03-06T04:36:04.701Z,9.10
2023-03-06T04:37:04.693Z,9.50
2023-03-06T04:38:04.685Z,10.00
2023-03-06T04:39:04.795Z,9.80
2023-03-06T04:40:04.687Z,11.40
2023-03-06T04:41:04.646Z,6.90
2023-03-06T04:42:04.653Z,10.70
2023-03-06T04:43:04.622Z,8.20
2023-03-06T04:44:04.623Z,10.10
2023-03-06T04:45:11.684Z,9.60
2023-03-06T04:46:06.533Z,8.90
2023-03-06T04:47:04.585Z,6.40
2023-03-06T04:48:04.581Z,7.60
2023-03-06T04:49:04.577Z,8.80
2023-03-06T04:50:04.572Z,9.40
2023-03-06T04:51:04.542Z,9.70
2023-03-06T04:52:04.526Z,9.00
2023-03-06T04:53:04.542Z,8.30
2023-03-06T04:54:04.503Z,10.90
2023-03-06T04:55:04.505Z,6.10
2023-03-06T04:56:04.512Z,10.80
2023-03-06T04:57:04.491Z,9.20
2023-03-06T04:58:04.472Z,8.40
2023-03-06T04:59:04.473Z,13.50
2023-03-06T05:00:04.453Z,9.70
2023-03-06T05:01:04.763Z,10.60
2023-03-06T05:02:04.435Z,11.40
2023-03-06T05:03:04.404Z,11.80
2023-03-06T05:04:04.393Z,10.60
2023-03-06T05:05:04.383Z,13.60
2023-03-06T05:06:04.400Z,11.70
2023-03-06T05:07:04.361Z,11.20
2023-03-06T05:08:04.345Z,13.50
2023-03-06T05:09:04.329Z,11.90
2023-03-06T05:10:04.318Z,12.20
2023-03-06T05:11:04.314Z,11.10
2023-03-06T05:12:04.320Z,12.00
2023-03-06T05:13:04.296Z,10.60
2023-03-06T05:14:04.285Z,13.70
2023-03-06T05:15:04.277Z,10.50
2023-03-06T05:16:04.320Z,11.20
2023-03-06T05:17:04.268Z,12.80
2023-03-06T05:18:04.240Z,12.80
2023-03-06T05:19:04.226Z,12.50
2023-03-06T05:20:04.209Z,13.60
2023-03-06T05:21:04.198Z,11.30
2023-03-06T05:22:04.198Z,13.40
2023-03-06T05:23:04.196Z,11.80
2023-03-06T05:24:04.165Z,12.90
2023-03-06T05:25:04.164Z,15.80
2023-03-06T05:26:04.138Z,11.30
2023-03-06T05:27:04.166Z,10.80
2023-03-06T05:28:04.117Z,11.50
2023-03-06T05:29:04.135Z,12.10
2023-03-06T05:30:04.094Z,13.80
2023-03-06T05:31:04.084Z,11.00
2023-03-06T05:32:04.145Z,11.90
2023-03-06T05:33:04.066Z,14.80
2023-03-06T05:34:04.080Z,13.90
2023-03-06T05:35:04.034Z,8.70
2023-03-06T05:36:04.057Z,10.60
2023-03-06T05:37:04.032Z,10.10
2023-03-06T05:38:04.076Z,13.00
2023-03-06T05:39:04.020Z,8.20
2023-03-06T05:40:04.065Z,11.80
2023-03-06T05:41:04.099Z,10.30
2023-03-06T05:42:04.061Z,8.20
2023-03-06T05:43:04.055Z,9.90
2023-03-06T05:44:04.028Z,10.30
2023-03-06T05:45:04.082Z,7.00
2023-03-06T05:46:04.115Z,10.30
2023-03-06T05:47:04.321Z,8.00
2023-03-06T05:48:03.910Z,7.30
2023-03-06T05:49:03.918Z,13.50
2023-03-06T05:50:03.900Z,11.10
2023-03-06T05:51:03.881Z,9.60
2023-03-06T05:52:03.874Z,9.70
2023-03-06T05:53:03.879Z,10.10
2023-03-06T05:54:03.841Z,7.70
2023-03-06T05:55:03.823Z,13.20
2023-03-06T05:56:03.829Z,10.40
2023-03-06T05:57:03.810Z,8.50
2023-03-06T05:58:03.823Z,8.40
2023-03-06T05:59:03.789Z,7.90
2023-03-06T06:00:03.804Z,12.70
2023-03-06T06:01:03.760Z,7.90
2023-03-06T06:02:03.775Z,9.90
2023-03-06T06:03:03.770Z,10.80
2023-03-06T06:04:03.731Z,9.20
2023-03-06T06:05:03.739Z,11.10
2023-03-06T06:06:03.729Z,10.20
2023-03-06T06:07:03.700Z,11.90
2023-03-06T06:08:03.704Z,9.40
2023-03-06T06:09:03.687Z,11.10
2023-03-06T06:10:04.051Z,8.80
2023-03-06T06:11:03.695Z,11.10
2023-03-06T06:12:03.682Z,10.50
2023-03-06T06:13:03.647Z,11.90
2023-03-06T06:14:03.620Z,10.10
2023-03-06T06:15:03.623Z,13.10
2023-03-06T06:16:03.652Z,8.90
2023-03-06T06:17:03.619Z,18.50
2023-03-06T06:18:03.584Z,14.20
2023-03-06T06:19:03.582Z,13.40
2023-03-06T06:20:03.557Z,9.00
2023-03-06T06:21:03.548Z,9.60
2023-03-06T06:22:03.537Z,11.50
2023-03-06T06:23:03.548Z,10.50
2023-03-06T06:24:03.510Z,11.00
2023-03-06T06:25:03.497Z,11.80
2023-03-06T06:26:03.549Z,11.00
2023-03-06T06:27:04.137Z,9.80
2023-03-06T06:28:03.490Z,8.80
2023-03-06T06:29:03.462Z,12.10
2023-03-06T06:30:03.446Z,9.70
2023-03-06T06:31:03.450Z,11.10
2023-03-06T06:32:03.459Z,18.80
2023-03-06T06:33:03.437Z,10.10
2023-03-06T06:34:03.428Z,10.50
2023-03-06T06:35:03.391Z,9.50
2023-03-06T06:36:03.388Z,9.50
2023-03-06T06:37:03.390Z,7.90
2023-03-06T06:38:03.366Z,10.60
2023-03-06T06:39:03.393Z,9.20
2023-03-06T06:40:03.341Z,13.90
2023-03-06T06:41:35.668Z,11.00
2023-03-06T06:42:26.603Z,8.60
2023-03-06T06:43:04.308Z,11.70
2023-03-06T06:44:03.296Z,9.10
2023-03-06T06:45:03.344Z,9.70
2023-03-06T06:46:26.230Z,9.00
2023-03-06T06:48:04.305Z,12.80
2023-03-06T06:49:03.325Z,12.50
2023-03-06T06:50:03.257Z,11.00
2023-03-06T06:51:03.287Z,7.90
2023-03-06T06:52:03.210Z,9.20
2023-03-06T06:53:03.210Z,8.90
2023-03-06T06:54:03.199Z,15.90
2023-03-06T06:55:03.203Z,8.80
2023-03-06T06:56:03.166Z,6.70
2023-03-06T06:57:03.177Z,8.40
2023-03-06T06:58:03.145Z,10.70
2023-03-06T06:59:15.548Z,11.20
2023-03-06T07:00:04.137Z,11.10
2023-03-06T07:01:03.123Z,8.50
2023-03-06T07:02:03.113Z,8.20
2023-03-06T07:03:03.098Z,9.80
2023-03-06T07:04:03.093Z,8.10
2023-03-06T07:05:05.357Z,10.30
2023-03-06T07:06:03.085Z,11.60
2023-03-06T07:07:03.049Z,8.40
2023-03-06T07:08:03.045Z,9.40
2023-03-06T07:09:03.058Z,12.10
2023-03-06T07:10:03.024Z,8.40
2023-03-06T07:11:03.041Z,11.90
2023-03-06T07:12:03.177Z,7.80
2023-03-06T07:13:02.985Z,9.70
2023-03-06T07:14:02.977Z,6.90
2023-03-06T07:15:02.985Z,9.80
2023-03-06T07:16:03.016Z,9.40
2023-03-06T07:17:02.964Z,8.90
2023-03-06T07:18:02.956Z,8.50
2023-03-06T07:19:02.936Z,6.90
2023-03-06T07:20:02.910Z,13.10
2023-03-06T07:21:02.903Z,8.00
2023-03-06T07:22:02.891Z,8.70
2023-03-06T07:23:02.909Z,8.40
2023-03-06T07:24:02.881Z,8.80
2023-03-06T07:25:02.857Z,8.10
2023-03-06T07:26:02.851Z,8.40
2023-03-06T07:27:02.831Z,9.90
2023-03-06T07:28:02.912Z,9.10
2023-03-06T07:29:02.821Z,9.70
2023-03-06T07:30:02.818Z,10.60
2023-03-06T07:31:02.843Z,13.20
2023-03-06T07:32:02.807Z,7.90
2023-03-06T07:33:02.794Z,8.70
2023-03-06T07:34:04.952Z,6.90
2023-03-06T07:35:19.010Z,7.30
2023-03-06T07:36:03.784Z,9.50
2023-03-06T07:37:02.731Z,6.20
2023-03-06T07:38:02.750Z,8.40
2023-03-06T07:39:02.742Z,7.10
2023-03-06T07:40:02.707Z,11.20
2023-03-06T07:41:02.774Z,7.40
2023-03-06T07:42:02.694Z,7.40
2023-03-06T07:43:18.393Z,7.90
2023-03-06T07:44:03.682Z,8.40
2023-03-06T07:45:02.644Z,7.00
2023-03-06T07:46:02.639Z,7.20
2023-03-06T07:47:02.638Z,7.10
2023-03-06T07:48:04.428Z,6.80
2023-03-06T07:49:02.604Z,13.60
2023-03-06T07:50:02.616Z,7.40
2023-03-06T07:51:02.644Z,5.80
2023-03-06T07:52:02.573Z,5.90
2023-03-06T07:53:02.565Z,6.50
2023-03-06T07:54:02.556Z,8.20
2023-03-06T07:55:02.540Z,5.40
2023-03-06T07:56:02.546Z,7.10
2023-03-06T07:57:02.515Z,5.90
2023-03-06T07:58:02.516Z,6.80
2023-03-06T07:59:02.502Z,8.70
2023-03-06T08:00:02.483Z,6.90
2023-03-06T08:01:02.506Z,4.40
2023-03-06T08:02:02.481Z,6.10
2023-03-06T08:03:02.530Z,4.40
2023-03-06T08:04:02.493Z,5.70
2023-03-06T08:05:02.447Z,5.90
2023-03-06T08:06:02.517Z,7.60
2023-03-06T08:07:02.414Z,6.70
2023-03-06T08:08:02.402Z,4.70
2023-03-06T08:09:02.624Z,4.90
2023-03-06T08:10:02.380Z,6.30
2023-03-06T08:11:02.376Z,6.00
2023-03-06T08:12:02.375Z,10.40
2023-03-06T08:13:02.354Z,5.10
2023-03-06T08:14:02.481Z,6.00
2023-03-06T08:15:02.327Z,7.40
2023-03-06T08:16:02.458Z,5.70
2023-03-06T08:17:02.321Z,5.60
2023-03-06T08:18:02.292Z,6.60
2023-03-06T08:19:02.282Z,9.10
2023-03-06T08:20:02.282Z,6.10
2023-03-06T08:21:02.267Z,5.80
2023-03-06T08:22:02.240Z,6.20
2023-03-06T08:23:02.234Z,7.00
2023-03-06T08:24:02.219Z,8.60
2023-03-06T08:25:02.230Z,4.30
2023-03-06T08:26:02.217Z,6.80
2023-03-06T08:27:02.197Z,4.50
2023-03-06T08:28:02.176Z,5.40
2023-03-06T08:29:02.169Z,3.90
2023-03-06T08:30:02.172Z,3.60
2023-03-06T08:31:02.151Z,5.90
2023-03-06T08:32:02.245Z,2.90
2023-03-06T08:33:02.137Z,5.90
2023-03-06T08:34:02.129Z,6.90
2023-03-06T08:35:02.152Z,4.60
2023-03-06T08:36:02.460Z,4.60
2023-03-06T08:37:02.080Z,5.40
2023-03-06T08:38:02.085Z,3.80
2023-03-06T08:39:02.060Z,6.20
2023-03-06T08:40:02.067Z,4.40
2023-03-06T08:41:02.062Z,4.10
2023-03-06T08:42:02.026Z,3.00
2023-03-06T08:43:02.020Z,3.80
2023-03-06T08:44:02.010Z,5.10
2023-03-06T08:45:02.148Z,5.60
2023-03-06T08:46:02.022Z,4.90
2023-03-06T08:47:01.980Z,5.10
2023-03-06T08:48:01.965Z,4.90
2023-03-06T08:49:01.951Z,5.30
2023-03-06T08:50:01.958Z,5.50
2023-03-06T08:51:01.946Z,5.60
2023-03-06T08:52:01.919Z,5.90
2023-03-06T08:53:01.906Z,4.20
2023-03-06T08:54:01.889Z,4.90
2023-03-06T08:55:01.888Z,3.50
2023-03-06T08:56:01.889Z,3.50
2023-03-06T08:57:01.889Z,6.20
2023-03-06T08:58:01.853Z,4.90
2023-03-06T08:59:01.851Z,4.90
2023-03-06T09:00:01.855Z,4.40
2023-03-06T09:01:01.909Z,4.20
2023-03-06T09:02:01.850Z,3.80
2023-03-06T09:03:01.827Z,4.30
2023-03-06T09:04:01.815Z,5.90
2023-03-06T09:05:01.782Z,6.50
2023-03-06T09:06:01.759Z,5.00
2023-03-06T09:07:01.759Z,4.40
2023-03-06T09:08:01.840Z,5.90
2023-03-06T09:09:01.726Z,6.30
2023-03-06T09:10:01.744Z,3.50
2023-03-06T09:11:01.706Z,4.90
2023-03-06T09:12:01.725Z,3.70
2023-03-06T09:13:01.710Z,3.50
2023-03-06T09:14:01.729Z,4.30
2023-03-06T09:15:01.686Z,4.80
2023-03-06T09:16:01.646Z,5.40
2023-03-06T09:17:01.638Z,4.20
2023-03-06T09:18:01.688Z,3.90
2023-03-06T09:19:01.648Z,5.50
2023-03-06T09:20:01.780Z,5.40
2023-03-06T09:21:01.598Z,6.90
2023-03-06T09:22:01.614Z,3.90
2023-03-06T09:23:01.580Z,5.40
2023-03-06T09:24:01.637Z,8.10
2023-03-06T09:25:01.592Z,4.80
2023-03-06T09:26:01.573Z,6.30
2023-03-06T09:27:01.542Z,4.70
2023-03-06T09:28:10.778Z,4.90
2023-03-06T09:29:02.517Z,5.60
2023-03-06T09:30:01.561Z,5.10
2023-03-06T09:31:01.561Z,5.70
2023-03-06T09:32:01.521Z,4.80
2023-03-06T09:33:01.476Z,4.40
2023-03-06T09:34:01.471Z,4.00
2023-03-06T09:35:01.494Z,7.10
2023-03-06T09:36:01.464Z,4.40
2023-03-06T09:37:01.496Z,5.20
2023-03-06T09:38:01.434Z,5.00
2023-03-06T09:39:01.418Z,8.50
2023-03-06T09:40:01.411Z,7.20
2023-03-06T09:41:01.424Z,6.30
2023-03-06T09:42:01.404Z,4.70
2023-03-06T09:43:01.363Z,6.90
2023-03-06T09:44:01.361Z,5.70
2023-03-06T09:45:01.373Z,6.80
2023-03-06T09:46:01.358Z,5.60
2023-03-06T09:47:01.373Z,5.60
2023-03-06T09:48:01.317Z,5.10
2023-03-06T09:49:01.302Z,6.70
2023-03-06T09:50:01.298Z,4.00
2023-03-06T09:51:01.284Z,4.40
2023-03-06T09:52:01.266Z,5.60
2023-03-06T09:53:01.279Z,3.60
2023-03-06T09:54:01.246Z,5.30
2023-03-06T09:55:01.238Z,5.00
2023-03-06T09:56:01.227Z,6.90
2023-03-06T09:57:01.232Z,6.40
2023-03-06T09:58:01.207Z,5.00
2023-03-06T09:59:01.208Z,4.20
2023-03-06T10:00:04.040Z,5.20
2023-03-06T10:01:01.167Z,4.60
2023-03-06T10:02:01.216Z,7.50
2023-03-06T10:03:01.197Z,5.20
2023-03-06T10:04:01.156Z,4.30
2023-03-06T10:05:01.213Z,5.40
2023-03-06T10:06:02.690Z,8.00
2023-03-06T10:07:01.105Z,11.60
2023-03-06T10:08:01.112Z,7.20
2023-03-06T10:09:01.077Z,4.70
2023-03-06T10:10:01.078Z,4.50
2023-03-06T10:11:01.088Z,6.50
2023-03-06T10:12:01.861Z,4.90
2023-03-06T10:13:01.043Z,5.00
2023-03-06T10:14:01.037Z,5.70
2023-03-06T10:15:01.061Z,6.20
2023-03-06T10:16:01.059Z,4.50
2023-03-06T10:17:00.986Z,7.50
2023-03-06T10:18:01.048Z,4.90
2023-03-06T10:19:00.993Z,5.80
2023-03-06T10:20:00.969Z,6.40
2023-03-06T10:21:10.324Z,7.20
2023-03-06T10:22:01.948Z,4.40
2023-03-06T10:23:03.879Z,7.00
2023-03-06T10:24:00.942Z,5.20
2023-03-06T10:25:00.910Z,4.80
2023-03-06T10:26:00.947Z,3.70
2023-03-06T10:27:01.119Z,6.70
2023-03-06T10:28:00.882Z,5.40
2023-03-06T10:29:00.862Z,4.50
2023-03-06T10:30:03.636Z,4.50
2023-03-06T10:31:00.879Z,4.60
2023-03-06T10:32:00.899Z,7.00
2023-03-06T10:33:00.841Z,4.40
2023-03-06T10:34:00.815Z,3.80
2023-03-06T10:35:00.821Z,3.60
2023-03-06T10:36:00.845Z,3.10
2023-03-06T10:37:00.783Z,3.90
2023-03-06T10:38:00.770Z,3.80
2023-03-06T10:39:00.764Z,2.40
2023-03-06T10:40:00.743Z,3.10
2023-03-06T10:41:00.762Z,3.10
2023-03-06T10:42:00.750Z,3.20
2023-03-06T10:43:11.207Z,4.90
2023-03-06T10:44:01.726Z,2.50
2023-03-06T10:45:00.708Z,3.40
2023-03-06T10:46:00.716Z,4.00
2023-03-06T10:47:00.684Z,4.00
2023-03-06T10:48:00.673Z,3.70
2023-03-06T10:49:00.683Z,3.00
2023-03-06T10:50:00.630Z,3.40
2023-03-06T10:51:04.736Z,2.80
2023-03-06T10:52:01.629Z,1.50
2023-03-06T10:53:00.602Z,1.80
2023-03-06T10:54:00.636Z,1.80
2023-03-06T10:55:00.573Z,3.00
2023-03-06T10:56:00.577Z,4.20
2023-03-06T10:57:00.561Z,2.40
2023-03-06T10:58:00.593Z,2.20
2023-03-06T10:59:00.542Z,3.20
2023-03-06T11:00:00.573Z,2.00
2023-03-06T11:01:00.512Z,2.10
2023-03-06T11:02:00.595Z,1.30
2023-03-06T11:03:00.525Z,3.80
2023-03-06T11:04:00.504Z,1.20
2023-03-06T11:05:00.482Z,2.60
2023-03-06T11:06:01.305Z,2.20
2023-03-06T11:07:00.455Z,1.00
2023-03-06T11:08:00.462Z,1.40
2023-03-06T11:09:00.475Z,1.60
2023-03-06T11:10:00.425Z,0.60
2023-03-06T11:11:00.422Z,1.40
2023-03-06T11:12:00.386Z,1.20
2023-03-06T11:13:00.389Z,1.50
2023-03-06T11:14:00.408Z,1.80
2023-03-06T11:15:00.354Z,1.30
2023-03-06T11:16:00.399Z,2.10
2023-03-06T11:17:01.114Z,1.20
2023-03-06T11:18:00.336Z,1.70
2023-03-06T11:19:00.332Z,1.50
2023-03-06T11:20:00.323Z,0.60
2023-03-06T11:21:00.364Z,1.60
2023-03-06T11:22:00.290Z,0.80
2023-03-06T11:23:08.054Z,2.60
2023-03-06T11:24:02.063Z,1.70
2023-03-06T11:25:00.239Z,1.10
2023-03-06T11:26:00.253Z,0.80
2023-03-06T11:27:00.226Z,0.60
2023-03-06T11:28:00.239Z,1.40
2023-03-06T11:29:00.257Z,2.40
2023-03-06T11:30:00.213Z,1.40
2023-03-06T11:31:00.324Z,0.60
2023-03-06T11:32:00.487Z,3.40
2023-03-06T11:33:00.153Z,1.20
2023-03-06T11:34:00.147Z,1.10
2023-03-06T11:35:00.222Z,1.20
2023-03-06T11:36:00.223Z,1.10
2023-03-06T11:37:00.156Z,0.70
2023-03-06T11:38:00.180Z,1.10
2023-03-06T11:39:00.105Z,0.90
2023-03-06T11:40:00.137Z,1.10
2023-03-06T11:41:00.066Z,0.80
2023-03-06T11:42:00.106Z,1.80
2023-03-06T11:43:00.038Z,1.80
2023-03-06T11:44:00.038Z,1.50
2023-03-06T11:45:01.311Z,1.20
2023-03-06T11:46:00.009Z,1.90
2023-03-06T11:47:00.021Z,2.10
2023-03-06T11:48:00.029Z,1.80
2023-03-06T11:48:59.979Z,3.20
2023-03-06T11:49:59.996Z,2.20
2023-03-06T11:50:59.950Z,4.00
2023-03-06T11:51:59.952Z,1.40
2023-03-06T11:52:59.937Z,0.90
2023-03-06T11:53:59.930Z,1.70
2023-03-06T11:54:59.926Z,1.30
2023-03-06T11:55:59.929Z,1.80
2023-03-06T11:56:59.898Z,0.90
2023-03-06T11:57:59.877Z,1.40
2023-03-06T11:58:59.895Z,1.00
2023-03-06T11:59:59.871Z,1.90
2023-03-06T12:00:59.865Z,4.80
2023-03-06T12:01:59.894Z,2.00
2023-03-06T12:02:59.853Z,1.60
2023-03-06T12:03:59.814Z,1.50
2023-03-06T12:04:59.838Z,3.20
2023-03-06T12:05:59.793Z,1.70
2023-03-06T12:06:59.813Z,1.70
2023-03-06T12:07:59.780Z,1.50
2023-03-06T12:08:59.783Z,1.20
2023-03-06T12:09:59.752Z,1.20
2023-03-06T12:10:59.752Z,3.10
2023-03-06T12:11:59.748Z,1.60
2023-03-06T12:12:59.720Z,2.10
2023-03-06T12:14:01.056Z,1.80
2023-03-06T12:14:59.717Z,1.80
2023-03-06T12:15:59.685Z,1.60
2023-03-06T12:16:59.665Z,1.20
2023-03-06T12:17:59.668Z,1.90
2023-03-06T12:18:59.655Z,2.90
2023-03-06T12:19:59.665Z,1.60
2023-03-06T12:20:59.623Z,1.90
2023-03-06T12:21:59.624Z,1.20
2023-03-06T12:23:14.488Z,1.70
2023-03-06T12:24:00.597Z,2.10
2023-03-06T12:24:59.585Z,2.20
2023-03-06T12:25:59.617Z,1.70
2023-03-06T12:26:59.561Z,2.00
2023-03-06T12:27:59.553Z,1.90
2023-03-06T12:28:59.547Z,1.60
2023-03-06T12:29:59.537Z,1.90
2023-03-06T12:30:59.514Z,1.90
2023-03-06T12:31:59.590Z,1.50
2023-03-06T12:32:59.496Z,2.40
2023-03-06T12:33:59.503Z,1.80
2023-03-06T12:34:59.531Z,2.20
2023-03-06T12:35:59.468Z,1.30
2023-03-06T12:36:59.480Z,2.70
2023-03-06T12:37:59.448Z,1.70
2023-03-06T12:38:59.463Z,1.30
2023-03-06T12:39:59.434Z,2.80
2023-03-06T12:40:59.406Z,1.90
2023-03-06T12:41:59.415Z,2.50
2023-03-06T12:42:59.410Z,2.20
2023-03-06T12:43:59.383Z,2.50
2023-03-06T12:44:59.367Z,1.70
2023-03-06T12:45:59.420Z,1.60
2023-03-06T12:46:59.348Z,1.90
2023-03-06T12:47:59.367Z,1.80
2023-03-06T12:48:59.334Z,2.10
2023-03-06T12:49:59.313Z,1.60
2023-03-06T12:50:59.299Z,1.90
2023-03-06T12:51:59.304Z,2.50
2023-03-06T12:52:59.287Z,2.20
2023-03-06T12:53:59.297Z,4.10
2023-03-06T12:54:59.299Z,1.60
2023-03-06T12:55:59.250Z,1.90
2023-03-06T12:56:59.228Z,1.70
2023-03-06T12:57:59.224Z,4.30
2023-03-06T12:58:59.239Z,2.20
2023-03-06T12:59:59.198Z,1.60
2023-03-06T13:01:04.317Z,1.70
2023-03-06T13:02:00.174Z,4.00
2023-03-06T13:02:59.213Z,3.00
2023-03-06T13:03:59.192Z,2.90
2023-03-06T13:04:59.145Z,1.90
2023-03-06T13:05:59.143Z,1.90
2023-03-06T13:06:59.251Z,2.00
2023-03-06T13:07:59.113Z,2.30
2023-03-06T13:08:59.100Z,2.20
2023-03-06T13:09:59.118Z,1.80
2023-03-06T13:10:59.074Z,2.30
2023-03-06T13:11:59.072Z,2.10
2023-03-06T13:12:59.054Z,6.90